Time;durP1;ratioP1;P1;durP2;ratioP2;P2;SDS_P1;SDS_P2;PMS_P1;PMS_P2;Temp;Humidity;BMP_temperature;BMP_pressure;BME280_temperature;BME280_humidity;BME280_pressure;Samples;Min_cycle;Max_cycle;Signal;HPM_P1;HPM_P2
2024/01/29 00:03:43;;;;;;;29.37;13.10;;;;;;;;;;5036165;28;20421;-68
2024/01/29 00:06:35;;;;;;;22.70;12.10;;;;;;;;;;5036703;28;20907;-68
2024/01/29 00:09:02;;;;;;;24.47;12.13;;;;;;;;;;5035711;28;20552;-68
2024/01/29 00:11:48;;;;;;;24.30;10.97;;;;;;;;;;5036759;28;20449;-69
2024/01/29 00:14:47;;;;;;;23.83;12.30;;;;;;;;;;5037216;28;20770;-68
2024/01/29 00:17:55;;;;;;;26.77;13.17;;;;;;;;;;5036088;28;20872;-68
2024/01/29 00:20:35;;;;;;;27.17;12.57;;;;;;;;;;5031007;28;20469;-69
2024/01/29 00:23:14;;;;;;;23.80;12.27;;;;;;;;;;5036151;28;20402;-68
2024/01/29 00:25:57;;;;;;;25.57;12.00;;;;;;;;;;5036062;28;20389;-69
2024/01/29 00:29:02;;;;;;;28.10;13.40;;;;;;;;;;5036529;28;20401;-68
2024/01/29 00:32:04;;;;;;;;;;;;;;;;;;;;;
2024/01/29 00:41:19;;;;;;;24.90;12.50;;;;;;;;;;5055060;28;20417;-69
2024/01/29 00:51:07;;;;;;;23.70;11.43;;;;;;;;;;5055634;28;20943;-69
2024/01/29 00:54:23;;;;;;;30.73;12.93;;;;;;;;;;5054230;28;20433;-70
2024/01/29 00:57:01;;;;;;;31.40;13.50;;;;;;;;;;5040468;28;20425;-68
2024/01/29 01:04:02;;;;;;;33.30;12.53;;;;;;;;;;5036178;28;20413;-69
2024/01/29 01:10:00;;;;;;;29.67;12.80;;;;;;;;;;5049851;28;20445;-69
2024/01/29 01:48:56;;;;;;;31.40;13.77;;;;;;;;;;5054918;28;20379;-69
2024/01/29 01:51:22;;;;;;;28.83;14.00;;;;;;;;;;5053885;28;20429;-70
2024/01/29 01:53:50;;;;;;;32.87;14.73;;;;;;;;;;5038431;28;20428;-69
2024/01/29 01:56:16;;;;;;;32.43;13.37;;;;;;;;;;5052849;28;20437;-70
2024/01/29 01:59:00;;;;;;;32.50;15.80;;;;;;;;;;5053725;28;20378;-69
2024/01/29 02:02:04;;;;;;;27.53;12.57;;;;;;;;;;5051415;28;20479;-70
2024/01/29 02:05:15;;;;;;;33.57;14.40;;;;;;;;;;5033555;28;20913;-69
2024/01/29 02:07:42;;;;;;;27.87;13.93;;;;;;;;;;5047238;28;20512;-69
2024/01/29 02:13:20;;;;;;;30.20;13.80;;;;;;;;;;5049900;28;20527;-69
2024/01/29 02:15:47;;;;;;;27.80;12.87;;;;;;;;;;5051346;28;20414;-70
2024/01/29 02:18:14;;;;;;;30.40;14.77;;;;;;;;;;5052492;28;20980;-71
2024/01/29 02:20:40;;;;;;;31.57;14.20;;;;;;;;;;5019509;28;20461;-70
2024/01/29 02:27:01;;;;;;;28.50;14.63;;;;;;;;;;5033954;28;20903;-68
2024/01/29 02:29:28;;;;;;;33.13;14.00;;;;;;;;;;5047391;28;20533;-68
2024/01/29 02:31:54;;;;;;;32.67;12.80;;;;;;;;;;5032307;28;20454;-68
2024/01/29 02:34:21;;;;;;;29.53;14.30;;;;;;;;;;5034449;28;20438;-68
2024/01/29 02:36:48;;;;;;;30.87;13.80;;;;;;;;;;5046632;28;20445;-69
2024/01/29 02:39:14;;;;;;;32.73;14.33;;;;;;;;;;5069636;28;20437;-69
2024/01/29 02:41:41;;;;;;;33.63;15.27;;;;;;;;;;5054243;28;20409;-68
2024/01/29 02:44:07;;;;;;;20.97;8.97;;;;;;;;;;5053874;28;20421;-69
2024/01/29 02:46:34;;;;;;;31.47;15.23;;;;;;;;;;5045736;28;20552;-68
2024/01/29 02:52:10;;;;;;;23.90;11.17;;;;;;;;;;5048743;28;20492;-68
2024/01/29 02:58:37;;;;;;;32.93;16.00;;;;;;;;;;5053776;28;20879;-68
2024/01/29 03:01:04;;;;;;;23.30;10.87;;;;;;;;;;5036523;28;20812;-69
2024/01/29 03:03:31;;;;;;;36.73;13.47;;;;;;;;;;5053678;28;20417;-68
2024/01/29 03:05:57;;;;;;;31.80;15.90;;;;;;;;;;5016766;28;20434;-68
2024/01/29 03:08:24;;;;;;;29.27;14.13;;;;;;;;;;5031773;28;20446;-68
2024/01/29 03:10:51;;;;;;;30.03;14.97;;;;;;;;;;5050037;28;20484;-68
2024/01/29 03:13:18;;;;;;;31.00;16.30;;;;;;;;;;5032544;28;20778;-68
2024/01/29 03:15:45;;;;;;;35.40;15.87;;;;;;;;;;5033443;28;20747;-68
2024/01/29 03:18:11;;;;;;;27.80;15.30;;;;;;;;;;5033405;28;20440;-68
2024/01/29 03:20:38;;;;;;;36.30;16.87;;;;;;;;;;5032600;28;20425;-68
2024/01/29 03:23:05;;;;;;;29.77;15.60;;;;;;;;;;5033454;28;20582;-68
2024/01/29 03:25:31;;;;;;;31.53;16.07;;;;;;;;;;5032574;28;20476;-68
2024/01/29 03:27:58;;;;;;;33.20;15.50;;;;;;;;;;5033462;28;20445;-68
2024/01/29 03:30:25;;;;;;;35.33;15.83;;;;;;;;;;5033993;28;20432;-68
2024/01/29 03:32:55;;;;;;;34.07;15.80;;;;;;;;;;5032482;28;20545;-68
2024/01/29 03:35:23;;;;;;;39.27;16.83;;;;;;;;;;5051990;28;20441;-68
2024/01/29 03:37:49;;;;;;;34.40;16.60;;;;;;;;;;5036492;28;20739;-68
2024/01/29 03:40:16;;;;;;;27.37;14.77;;;;;;;;;;5036256;28;20779;-68
2024/01/29 03:42:42;;;;;;;36.47;18.20;;;;;;;;;;5052734;28;20840;-68
2024/01/29 03:45:09;;;;;;;27.90;12.77;;;;;;;;;;5037403;28;20462;-68
2024/01/29 03:47:36;;;;;;;22.57;11.27;;;;;;;;;;5035792;28;20452;-68
2024/01/29 03:50:03;;;;;;;38.97;16.77;;;;;;;;;;5052179;28;20475;-68
2024/01/29 03:52:45;;;;;;;25.07;12.07;;;;;;;;;;5034175;28;20891;-68
2024/01/29 03:55:11;;;;;;;36.10;15.53;;;;;;;;;;5050872;28;20912;-68
2024/01/29 04:00:42;;;;;;;33.03;16.00;;;;;;;;;;5056025;28;20471;-68
2024/01/29 04:06:46;;;;;;;39.40;14.53;;;;;;;;;;5055702;28;20417;-69
2024/01/29 04:09:19;;;;;;;34.03;15.50;;;;;;;;;;5028784;28;20579;-69
2024/01/29 04:11:46;;;;;;;32.77;11.97;;;;;;;;;;5062236;28;20425;-70
2024/01/29 04:14:16;;;;;;;28.77;15.23;;;;;;;;;;5045885;28;20436;-70
2024/01/29 04:20:37;;;;;;;35.87;15.53;;;;;;;;;;5047507;28;20470;-69
2024/01/29 04:23:04;;;;;;;33.47;16.23;;;;;;;;;;5046102;28;20520;-68
2024/01/29 04:25:31;;;;;;;28.57;12.63;;;;;;;;;;5025633;28;20422;-68
2024/01/29 04:31:59;;;;;;;24.23;11.23;;;;;;;;;;5027358;28;20825;-68
2024/01/29 04:34:26;;;;;;;31.70;14.33;;;;;;;;;;5026448;28;20916;-69
2024/01/29 04:36:53;;;;;;;36.57;15.83;;;;;;;;;;5024068;28;20469;-68
2024/01/29 04:39:20;;;;;;;22.07;11.83;;;;;;;;;;5025783;28;20441;-68
2024/01/29 04:41:46;;;;;;;31.40;16.33;;;;;;;;;;5024931;28;20434;-68
2024/01/29 04:44:14;;;;;;;33.67;16.10;;;;;;;;;;5040639;28;20500;-68
2024/01/29 04:46:42;;;;;;;31.57;15.83;;;;;;;;;;5008271;28;20425;-69
2024/01/29 04:49:08;;;;;;;36.30;16.77;;;;;;;;;;5026226;28;20422;-68
2024/01/29 04:51:35;;;;;;;25.13;12.17;;;;;;;;;;5026341;28;20470;-68
2024/01/29 04:54:02;;;;;;;30.97;15.03;;;;;;;;;;5024632;28;20457;-68
2024/01/29 04:56:29;;;;;;;14.03;7.17;;;;;;;;;;5026433;28;20420;-69
2024/01/29 04:58:55;;;;;;;17.97;8.57;;;;;;;;;;5026495;28;20470;-68
2024/01/29 05:01:22;;;;;;;28.83;13.33;;;;;;;;;;5057860;28;20890;-69
2024/01/29 05:03:49;;;;;;;31.37;15.80;;;;;;;;;;5025192;28;20422;-68
2024/01/29 05:06:16;;;;;;;16.40;8.37;;;;;;;;;;5024276;28;20520;-68
2024/01/29 05:08:43;;;;;;;14.27;7.00;;;;;;;;;;5015954;28;20501;-69
2024/01/29 05:11:10;;;;;;;25.50;10.10;;;;;;;;;;5022949;28;20437;-68
2024/01/29 05:13:46;;;;;;;20.83;10.93;;;;;;;;;;5032149;28;20516;-68
2024/01/29 05:16:46;;;;;;;17.40;8.60;;;;;;;;;;5040523;28;20429;-69
2024/01/29 05:19:12;;;;;;;18.63;8.67;;;;;;;;;;5039130;28;20608;-69
2024/01/29 05:21:39;;;;;;;20.93;9.50;;;;;;;;;;5042256;28;20498;-69
2024/01/29 05:24:06;;;;;;;15.00;6.57;;;;;;;;;;5026972;28;20785;-70
2024/01/29 05:27:16;;;;;;;23.70;10.67;;;;;;;;;;5044856;28;20429;-68
2024/01/29 05:33:42;;;;;;;17.80;8.67;;;;;;;;;;5065357;28;20518;-71
2024/01/29 05:36:09;;;;;;;25.23;12.13;;;;;;;;;;5047328;28;20440;-68
2024/01/29 05:38:36;;;;;;;20.57;10.47;;;;;;;;;;5035465;28;20438;-68
2024/01/29 05:41:16;;;;;;;17.10;9.10;;;;;;;;;;5023722;28;20465;-67
2024/01/29 05:43:43;;;;;;;21.73;9.77;;;;;;;;;;5035731;28;20457;-68
2024/01/29 05:46:10;;;;;;;13.67;7.10;;;;;;;;;;5023710;28;20457;-69
2024/01/29 05:52:37;;;;;;;20.13;9.03;;;;;;;;;;5024402;28;20480;-69
2024/01/29 05:55:04;;;;;;;18.47;8.80;;;;;;;;;;5006723;28;20430;-68
2024/01/29 05:57:31;;;;;;;14.80;7.23;;;;;;;;;;5022741;28;20438;-72
2024/01/29 05:59:59;;;;;;;24.00;9.83;;;;;;;;;;5024623;28;20434;-73
2024/01/29 06:02:25;;;;;;;21.20;10.27;;;;;;;;;;5039407;28;20438;-71
2024/01/29 06:04:53;;;;;;;13.47;6.90;;;;;;;;;;5025066;28;20430;-68
2024/01/29 06:07:19;;;;;;;22.17;10.57;;;;;;;;;;5023467;28;20901;-68
2024/01/29 06:09:46;;;;;;;13.30;6.53;;;;;;;;;;5029942;28;20511;-69
2024/01/29 06:16:06;;;;;;;19.90;10.20;;;;;;;;;;5044935;28;20463;-68
2024/01/29 06:18:33;;;;;;;21.77;9.37;;;;;;;;;;5044855;28;20978;-69
2024/01/29 06:21:00;;;;;;;22.60;9.03;;;;;;;;;;5043112;28;20424;-67
2024/01/29 06:23:47;;;;;;;16.57;9.13;;;;;;;;;;5041633;28;20904;-67
2024/01/29 06:26:14;;;;;;;20.83;10.53;;;;;;;;;;5041625;28;20433;-68
2024/01/29 06:32:15;;;;;;;18.67;8.80;;;;;;;;;;5038143;28;20494;-69
2024/01/29 06:37:53;;;;;;;23.03;11.57;;;;;;;;;;5039346;28;22110;-69
2024/01/29 06:40:26;;;;;;;22.60;9.60;;;;;;;;;;5025099;28;20437;-69
2024/01/29 06:46:46;;;;;;;11.97;6.60;;;;;;;;;;5035835;28;20412;-68
2024/01/29 06:49:23;;;;;;;25.63;11.87;;;;;;;;;;5017870;28;20449;-68
2024/01/29 06:51:50;;;;;;;25.77;10.83;;;;;;;;;;5042992;28;20522;-69
2024/01/29 06:54:17;;;;;;;26.93;11.30;;;;;;;;;;5042413;28;20464;-70
2024/01/29 06:56:44;;;;;;;23.73;11.90;;;;;;;;;;5043439;28;20428;-68
2024/01/29 06:59:11;;;;;;;26.30;11.63;;;;;;;;;;5043013;28;20516;-69
2024/01/29 07:05:38;;;;;;;25.97;11.43;;;;;;;;;;5024700;28;20421;-73
2024/01/29 07:08:05;;;;;;;24.10;11.30;;;;;;;;;;5010680;28;21130;-70
2024/01/29 07:10:32;;;;;;;23.67;11.03;;;;;;;;;;5022204;28;20461;-70
2024/01/29 07:12:59;;;;;;;21.03;10.77;;;;;;;;;;5038531;28;20473;-70
2024/01/29 07:15:26;;;;;;;18.10;9.33;;;;;;;;;;5022739;28;20971;-69
2024/01/29 07:17:53;;;;;;;14.67;6.27;;;;;;;;;;5022507;28;20506;-70
2024/01/29 07:20:20;;;;;;;6.07;4.27;;;;;;;;;;5023999;28;22321;-70
2024/01/29 07:22:47;;;;;;;10.87;6.13;;;;;;;;;;5024319;28;20462;-70
2024/01/29 07:25:14;;;;;;;14.77;6.20;;;;;;;;;;5022638;28;20446;-70
2024/01/29 07:27:41;;;;;;;16.07;8.80;;;;;;;;;;5032460;28;20432;-71
2024/01/29 07:37:44;;;;;;;8.60;4.60;;;;;;;;;;5022355;28;20495;-69
2024/01/29 07:40:11;;;;;;;18.03;8.73;;;;;;;;;;5028007;28;20440;-68
2024/01/29 07:46:31;;;;;;;15.10;7.97;;;;;;;;;;5025621;28;20888;-71
2024/01/29 07:49:01;;;;;;;22.40;9.73;;;;;;;;;;5038051;28;20862;-69
2024/01/29 07:51:28;;;;;;;18.10;9.37;;;;;;;;;;5054774;28;20434;-68
2024/01/29 07:53:56;;;;;;;14.10;6.50;;;;;;;;;;5022055;28;20786;-68
2024/01/29 07:56:31;;;;;;;18.13;9.90;;;;;;;;;;5023469;28;20440;-70
2024/01/29 07:58:58;;;;;;;22.13;10.50;;;;;;;;;;5022671;28;20432;-69
2024/01/29 08:01:34;;;;;;;23.93;10.67;;;;;;;;;;5022643;28;20909;-73
2024/01/29 08:04:01;;;;;;;18.73;9.27;;;;;;;;;;5023026;28;20276;-69
2024/01/29 08:06:48;;;;;;;20.17;10.27;;;;;;;;;;5004622;28;20712;-69
2024/01/29 08:09:15;;;;;;;20.70;10.70;;;;;;;;;;5007799;28;20247;-68
2024/01/29 08:11:42;;;;;;;23.87;11.40;;;;;;;;;;5031259;28;20199;-68
2024/01/29 08:14:08;;;;;;;23.00;10.27;;;;;;;;;;5025287;28;21670;-72
2024/01/29 08:16:36;;;;;;;22.93;11.67;;;;;;;;;;5021877;28;20752;-71
2024/01/29 08:19:03;;;;;;;20.20;9.27;;;;;;;;;;5013887;28;20198;-70
2024/01/29 08:25:29;;;;;;;20.80;10.17;;;;;;;;;;5046560;28;20232;-72
2024/01/29 08:27:57;;;;;;;25.57;11.90;;;;;;;;;;5026801;28;20329;-73
2024/01/29 08:34:17;;;;;;;19.63;9.50;;;;;;;;;;5026500;28;20261;-73
2024/01/29 08:36:44;;;;;;;21.90;11.50;;;;;;;;;;5015227;28;20285;-72
2024/01/29 08:39:50;;;;;;;21.67;10.90;;;;;;;;;;5049087;28;20656;-72
2024/01/29 08:42:17;;;;;;;20.83;10.60;;;;;;;;;;5040155;28;20187;-72
2024/01/29 08:44:44;;;;;;;18.47;9.17;;;;;;;;;;5043498;28;20218;-73
2024/01/29 08:47:19;;;;;;;16.73;9.80;;;;;;;;;;5007628;28;20266;-72
2024/01/29 08:49:46;;;;;;;20.97;10.83;;;;;;;;;;5016450;28;20581;-72
2024/01/29 08:52:13;;;;;;;23.83;10.87;;;;;;;;;;5010883;28;20194;-70
2024/01/29 08:54:55;;;;;;;21.00;11.10;;;;;;;;;;5008792;28;20230;-76
2024/01/29 09:01:49;;;;;;;23.90;11.00;;;;;;;;;;5045291;28;20209;-70
2024/01/29 09:04:16;;;;;;;24.77;11.33;;;;;;;;;;5023776;28;20260;-69
2024/01/29 09:10:49;;;;;;;19.67;8.77;;;;;;;;;;5044812;28;20280;-70
2024/01/29 09:13:18;;;;;;;21.03;9.87;;;;;;;;;;5040763;28;20314;-70
2024/01/29 09:19:39;;;;;;;16.30;8.60;;;;;;;;;;5027313;28;20905;-69
2024/01/29 09:22:08;;;;;;;17.00;7.30;;;;;;;;;;5038826;28;20191;-69
2024/01/29 09:24:35;;;;;;;19.50;9.40;;;;;;;;;;5025959;28;20219;-70
2024/01/29 09:27:02;;;;;;;19.90;10.30;;;;;;;;;;5042847;28;20281;-69
2024/01/29 09:29:29;;;;;;;8.43;4.27;;;;;;;;;;5030317;28;20190;-69
2024/01/29 09:36:04;;;;;;;15.87;8.83;;;;;;;;;;5047021;28;20640;-68
2024/01/29 09:38:37;;;;;;;16.13;8.90;;;;;;;;;;5058500;28;20545;-72
2024/01/29 09:44:17;;;;;;;12.17;6.20;;;;;;;;;;5028806;28;20187;-72
2024/01/29 09:46:44;;;;;;;14.27;8.40;;;;;;;;;;5042527;28;20191;-72
2024/01/29 09:52:22;;;;;;;16.97;8.43;;;;;;;;;;5036504;28;20236;-73
2024/01/29 09:55:21;;;;;;;14.63;7.00;;;;;;;;;;5044857;28;20222;-73
2024/01/29 09:57:50;;;;;;;15.80;8.17;;;;;;;;;;5039759;28;20646;-70
2024/01/29 10:00:20;;;;;;;16.60;8.37;;;;;;;;;;5055498;28;20193;-70
2024/01/29 10:09:51;;;;;;;17.10;7.43;;;;;;;;;;5028428;28;20233;-71
2024/01/29 10:12:26;;;;;;;13.60;7.30;;;;;;;;;;5013564;28;20192;-70
2024/01/29 10:14:58;;;;;;;16.67;8.90;;;;;;;;;;5032073;28;20226;-71
2024/01/29 10:17:29;;;;;;;14.67;8.23;;;;;;;;;;5025007;28;20361;-71
2024/01/29 10:19:57;;;;;;;13.37;7.20;;;;;;;;;;5022350;28;20199;-72
2024/01/29 10:22:26;;;;;;;14.67;8.23;;;;;;;;;;5039985;28;20191;-73
2024/01/29 10:33:10;;;;;;;14.33;6.90;;;;;;;;;;5034617;28;20194;-70
2024/01/29 10:35:38;;;;;;;15.53;7.77;;;;;;;;;;5054907;28;20203;-73
2024/01/29 10:38:06;;;;;;;17.30;8.13;;;;;;;;;;5036947;28;20239;-72
2024/01/29 10:40:38;;;;;;;12.07;6.10;;;;;;;;;;5046189;28;20235;-72
2024/01/29 10:47:37;;;;;;;17.30;8.33;;;;;;;;;;5060590;28;21131;-72
2024/01/29 10:50:04;;;;;;;13.60;7.90;;;;;;;;;;5041502;28;20245;-70
2024/01/29 10:52:33;;;;;;;12.70;7.40;;;;;;;;;;5018555;28;20199;-70
2024/01/29 10:55:35;;;;;;;14.57;7.27;;;;;;;;;;5021586;28;20682;-72
2024/01/29 10:58:03;;;;;;;17.87;8.17;;;;;;;;;;5023162;28;20231;-74
2024/01/29 11:04:31;;;;;;;15.73;7.97;;;;;;;;;;5024387;28;20198;-71
2024/01/29 11:07:06;;;;;;;16.10;8.37;;;;;;;;;;5056717;28;20218;-71
2024/01/29 11:09:33;;;;;;;15.63;7.93;;;;;;;;;;5009753;28;20610;-72
2024/01/29 11:12:28;;;;;;;15.90;7.93;;;;;;;;;;5056883;28;20542;-71
2024/01/29 11:14:56;;;;;;;14.30;7.47;;;;;;;;;;5016783;28;20222;-72
2024/01/29 11:17:28;;;;;;;14.60;8.20;;;;;;;;;;5001020;28;20199;-72
2024/01/29 11:26:23;;;;;;;14.60;7.73;;;;;;;;;;5020459;28;20245;-71
2024/01/29 11:29:07;;;;;;;14.20;6.40;;;;;;;;;;5008993;28;20272;-73
2024/01/29 11:31:43;;;;;;;17.37;8.80;;;;;;;;;;4994245;28;20631;-73
2024/01/29 11:34:14;;;;;;;19.87;9.53;;;;;;;;;;5017730;28;20219;-73
2024/01/29 11:36:41;;;;;;;18.70;8.90;;;;;;;;;;5034934;28;20548;-74
2024/01/29 11:46:25;;;;;;;14.70;7.97;;;;;;;;;;5024981;28;20263;-74
2024/01/29 11:48:54;;;;;;;13.57;6.83;;;;;;;;;;5030741;28;20188;-75
2024/01/29 11:51:29;;;;;;;13.17;7.33;;;;;;;;;;5012052;28;20532;-76
2024/01/29 11:53:56;;;;;;;17.50;7.77;;;;;;;;;;5003673;28;20303;-76
2024/01/29 12:01:08;;;;;;;14.10;7.60;;;;;;;;;;5026771;28;20210;-74
2024/01/29 12:03:48;;;;;;;15.57;7.63;;;;;;;;;;5021312;28;20287;-72
2024/01/29 12:06:16;;;;;;;14.93;7.57;;;;;;;;;;5037355;28;20191;-72
2024/01/29 12:08:49;;;;;;;14.47;7.40;;;;;;;;;;5028083;28;20230;-71
2024/01/29 12:11:16;;;;;;;13.07;6.90;;;;;;;;;;5003128;28;20516;-72
2024/01/29 12:14:23;;;;;;;11.47;7.00;;;;;;;;;;5011388;28;20183;-71
2024/01/29 12:16:50;;;;;;;16.40;7.50;;;;;;;;;;5015689;28;20204;-71
2024/01/29 12:19:42;;;;;;;14.73;7.60;;;;;;;;;;5036499;28;20192;-70
2024/01/29 12:22:11;;;;;;;14.17;8.00;;;;;;;;;;5022343;28;20212;-70
2024/01/29 12:32:54;;;;;;;15.13;7.63;;;;;;;;;;5037766;28;20167;-70
2024/01/29 12:35:25;;;;;;;13.60;6.90;;;;;;;;;;5010083;28;20713;-70
2024/01/29 12:38:05;;;;;;;16.17;7.17;;;;;;;;;;5005322;28;20223;-70
2024/01/29 12:40:32;;;;;;;15.70;7.83;;;;;;;;;;5037805;28;20200;-71
2024/01/29 12:43:00;;;;;;;16.70;7.87;;;;;;;;;;5033602;28;20199;-69
2024/01/29 12:45:27;;;;;;;13.50;7.37;;;;;;;;;;5017107;28;20206;-72
2024/01/29 12:48:06;;;;;;;13.43;7.90;;;;;;;;;;5020971;28;20324;-70
2024/01/29 12:50:33;;;;;;;15.83;7.87;;;;;;;;;;5039991;28;20258;-70
2024/01/29 12:53:01;;;;;;;18.57;7.87;;;;;;;;;;5004493;28;20204;-70
2024/01/29 12:55:27;;;;;;;13.53;7.27;;;;;;;;;;5037242;28;20230;-70
2024/01/29 13:01:06;;;;;;;14.80;7.53;;;;;;;;;;5014258;28;20197;-70
2024/01/29 13:07:36;;;;;;;12.97;6.50;;;;;;;;;;5024957;28;20202;-70
2024/01/29 13:10:05;;;;;;;13.93;7.20;;;;;;;;;;5009788;28;20540;-69
2024/01/29 13:12:31;;;;;;;13.10;6.77;;;;;;;;;;5004745;28;20639;-69
2024/01/29 13:14:58;;;;;;;14.23;7.67;;;;;;;;;;5020893;28;20270;-70
2024/01/29 13:25:25;;;;;;;14.80;7.37;;;;;;;;;;5025323;28;20186;-70
2024/01/29 13:28:09;;;;;;;14.97;8.37;;;;;;;;;;5010480;28;20174;-70
2024/01/29 13:30:37;;;;;;;17.23;8.73;;;;;;;;;;5019406;28;20194;-70
2024/01/29 13:37:04;;;;;;;15.60;8.80;;;;;;;;;;5034427;28;20221;-69
2024/01/29 13:39:31;;;;;;;14.43;8.10;;;;;;;;;;5007282;28;20195;-69
2024/01/29 13:42:00;;;;;;;14.67;7.50;;;;;;;;;;5006886;28;20657;-70
2024/01/29 13:44:29;;;;;;;15.07;7.87;;;;;;;;;;4991580;28;20199;-69
2024/01/29 13:46:57;;;;;;;14.23;7.63;;;;;;;;;;5025628;28;20915;-68
2024/01/29 13:49:26;;;;;;;17.97;8.23;;;;;;;;;;5009319;28;20184;-69
2024/01/29 13:51:54;;;;;;;14.90;8.73;;;;;;;;;;5036840;28;20202;-67
2024/01/29 13:57:31;;;;;;;16.57;7.77;;;;;;;;;;5031120;28;20199;-67
2024/01/29 14:00:16;;;;;;;15.20;8.10;;;;;;;;;;5019518;28;20198;-71
2024/01/29 14:02:42;;;;;;;17.37;9.50;;;;;;;;;;5006745;28;20222;-69
2024/01/29 14:11:51;;;;;;;17.23;8.90;;;;;;;;;;5040418;28;20645;-68
2024/01/29 14:14:17;;;;;;;17.77;8.97;;;;;;;;;;5044330;28;20266;-69
2024/01/29 14:16:50;;;;;;;19.67;9.60;;;;;;;;;;4996894;28;20182;-68
2024/01/29 14:19:17;;;;;;;18.90;9.63;;;;;;;;;;5025571;28;20191;-71
2024/01/29 14:21:44;;;;;;;17.63;9.80;;;;;;;;;;5026437;28;20194;-70
2024/01/29 14:24:11;;;;;;;17.67;8.67;;;;;;;;;;5025335;28;20191;-70
2024/01/29 14:26:41;;;;;;;16.70;8.77;;;;;;;;;;5025296;28;20191;-70
2024/01/29 14:29:08;;;;;;;23.37;9.93;;;;;;;;;;5026522;28;20276;-69
2024/01/29 14:31:35;;;;;;;19.83;10.17;;;;;;;;;;5024231;28;20321;-70
2024/01/29 14:34:03;;;;;;;18.80;8.93;;;;;;;;;;5013274;28;20659;-70
2024/01/29 14:36:31;;;;;;;17.57;8.70;;;;;;;;;;5026070;28;20223;-70
2024/01/29 14:42:57;;;;;;;22.90;9.87;;;;;;;;;;5026739;28;20210;-69
2024/01/29 14:45:24;;;;;;;21.20;10.23;;;;;;;;;;5023371;28;20650;-69
2024/01/29 14:48:09;;;;;;;23.10;10.20;;;;;;;;;;5009408;28;20175;-69
2024/01/29 14:51:02;;;;;;;21.33;10.03;;;;;;;;;;5006540;28;20665;-71
2024/01/29 14:53:30;;;;;;;21.83;10.07;;;;;;;;;;5023131;28;20179;-69
2024/01/29 14:55:57;;;;;;;24.93;10.40;;;;;;;;;;5022781;28;20682;-71
2024/01/29 14:58:23;;;;;;;23.67;11.63;;;;;;;;;;5033280;28;20171;-68
2024/01/29 15:00:50;;;;;;;21.50;10.67;;;;;;;;;;5016185;28;20180;-67
2024/01/29 15:03:18;;;;;;;24.10;12.20;;;;;;;;;;5032726;28;20195;-67
2024/01/29 15:05:47;;;;;;;21.40;11.90;;;;;;;;;;5049646;28;20673;-67
2024/01/29 15:08:31;;;;;;;20.80;11.50;;;;;;;;;;5019273;28;20158;-67
2024/01/29 15:11:00;;;;;;;21.03;11.40;;;;;;;;;;5032887;28;20243;-67
2024/01/29 15:13:44;;;;;;;25.17;11.07;;;;;;;;;;5036237;28;20164;-67
2024/01/29 15:16:10;;;;;;;20.73;10.70;;;;;;;;;;5032745;28;20234;-67
2024/01/29 15:18:55;;;;;;;24.03;12.73;;;;;;;;;;5032823;28;20386;-67
2024/01/29 15:24:50;;;;;;;21.90;10.00;;;;;;;;;;5035782;28;20646;-69
2024/01/29 15:27:47;;;;;;;22.17;9.40;;;;;;;;;;5014941;28;20258;-67
2024/01/29 15:34:15;;;;;;;22.47;11.80;;;;;;;;;;5051016;28;20246;-68
2024/01/29 15:40:17;;;;;;;19.23;9.43;;;;;;;;;;5030506;28;20186;-68
2024/01/29 15:46:19;;;;;;;23.20;11.77;;;;;;;;;;5031588;28;20209;-68
2024/01/29 15:48:46;;;;;;;22.93;11.43;;;;;;;;;;5032192;28;20204;-68
2024/01/29 15:51:13;;;;;;;21.37;11.73;;;;;;;;;;5031796;28;20257;-68
2024/01/29 15:53:42;;;;;;;22.97;11.90;;;;;;;;;;5032072;28;20199;-68
2024/01/29 15:56:09;;;;;;;22.63;11.60;;;;;;;;;;5032075;28;20210;-70
2024/01/29 15:58:36;;;;;;;23.83;13.17;;;;;;;;;;5031498;28;20198;-70
2024/01/29 16:01:04;;;;;;;27.43;13.50;;;;;;;;;;5048156;28;20634;-69
2024/01/29 16:03:36;;;;;;;23.57;10.37;;;;;;;;;;5015765;28;20189;-69
2024/01/29 16:06:02;;;;;;;21.47;12.07;;;;;;;;;;5031947;28;20202;-67
2024/01/29 16:08:29;;;;;;;24.10;12.10;;;;;;;;;;5047413;28;20189;-68
2024/01/29 16:10:56;;;;;;;24.13;12.73;;;;;;;;;;5032295;28;20233;-68
2024/01/29 16:13:23;;;;;;;23.27;12.37;;;;;;;;;;5030197;28;20201;-68
2024/01/29 16:15:49;;;;;;;23.17;12.10;;;;;;;;;;5032337;28;20332;-68
2024/01/29 16:18:17;;;;;;;25.37;12.67;;;;;;;;;;5031895;28;20186;-68
2024/01/29 16:20:43;;;;;;;26.63;14.10;;;;;;;;;;5050272;28;20197;-68
2024/01/29 16:23:10;;;;;;;26.73;13.53;;;;;;;;;;5019883;28;20218;-68
2024/01/29 16:25:37;;;;;;;23.53;12.43;;;;;;;;;;5048610;28;20201;-68
2024/01/29 16:28:04;;;;;;;28.33;14.33;;;;;;;;;;5029487;28;20196;-66
2024/01/29 16:34:30;;;;;;;26.73;13.97;;;;;;;;;;5039371;28;20225;-70
2024/01/29 16:36:57;;;;;;;31.03;15.13;;;;;;;;;;5049054;28;20215;-70
2024/01/29 16:39:24;;;;;;;29.23;14.93;;;;;;;;;;5031163;28;20209;-67
2024/01/29 16:45:50;;;;;;;31.00;14.80;;;;;;;;;;5046094;28;20198;-67
2024/01/29 16:48:20;;;;;;;27.70;15.17;;;;;;;;;;5028722;28;20293;-68
2024/01/29 16:50:48;;;;;;;32.43;16.23;;;;;;;;;;5046153;28;20277;-72
2024/01/29 17:01:14;;;;;;;21.47;9.00;;;;;;;;;;5032941;28;20305;-69
2024/01/29 17:03:59;;;;;;;34.23;16.50;;;;;;;;;;5042239;28;20179;-72
2024/01/29 17:06:29;;;;;;;32.77;16.73;;;;;;;;;;5008301;28;20614;-70
2024/01/29 17:12:37;;;;;;;37.27;17.77;;;;;;;;;;5007730;28;20191;-68
2024/01/29 17:15:07;;;;;;;35.27;18.50;;;;;;;;;;5020381;28;20239;-68
2024/01/29 17:17:34;;;;;;;38.00;18.93;;;;;;;;;;5005995;28;20196;-69
2024/01/29 17:20:02;;;;;;;38.40;19.27;;;;;;;;;;5015785;28;20199;-68
2024/01/29 17:22:30;;;;;;;39.40;19.03;;;;;;;;;;4996434;28;20195;-70
2024/01/29 17:24:57;;;;;;;37.30;18.90;;;;;;;;;;5025514;28;20223;-69
2024/01/29 17:27:44;;;;;;;34.47;19.33;;;;;;;;;;4993606;28;20203;-68
2024/01/29 17:30:12;;;;;;;39.53;20.10;;;;;;;;;;5006259;28;20200;-68
2024/01/29 17:32:42;;;;;;;41.07;20.20;;;;;;;;;;5004867;28;20188;-69
2024/01/29 17:35:10;;;;;;;40.67;19.00;;;;;;;;;;5004978;28;20733;-69
2024/01/29 17:37:37;;;;;;;32.23;15.10;;;;;;;;;;4986513;28;20678;-68
2024/01/29 17:40:04;;;;;;;35.97;19.73;;;;;;;;;;5018869;28;20443;-68
2024/01/29 17:42:31;;;;;;;34.10;15.90;;;;;;;;;;4987835;28;20192;-69
2024/01/29 17:48:52;;;;;;;37.97;18.93;;;;;;;;;;5009437;28;20215;-69
2024/01/29 17:51:41;;;;;;;24.67;11.20;;;;;;;;;;5004256;28;20187;-68
2024/01/29 17:54:51;;;;;;;35.43;18.27;;;;;;;;;;4988140;28;20199;-69
2024/01/29 18:01:17;;;;;;;38.77;16.80;;;;;;;;;;5006321;28;20418;-68
2024/01/29 18:03:44;;;;;;;39.60;18.63;;;;;;;;;;5005916;28;20438;-67
2024/01/29 18:09:24;;;;;;;32.20;14.97;;;;;;;;;;5006493;28;20819;-68
2024/01/29 18:11:55;;;;;;;37.50;18.90;;;;;;;;;;5020990;28;20230;-68
2024/01/29 18:14:23;;;;;;;42.27;20.03;;;;;;;;;;5025557;28;20183;-68
2024/01/29 18:16:50;;;;;;;39.73;20.63;;;;;;;;;;5007015;28;21014;-68
2024/01/29 18:19:17;;;;;;;41.53;19.50;;;;;;;;;;5039667;28;20418;-68
2024/01/29 18:22:02;;;;;;;40.23;19.70;;;;;;;;;;5039072;28;20195;-68
2024/01/29 18:24:29;;;;;;;35.23;18.70;;;;;;;;;;5029694;28;20219;-68
2024/01/29 18:27:02;;;;;;;40.10;20.03;;;;;;;;;;5038658;28;20191;-68
2024/01/29 18:29:29;;;;;;;38.70;20.17;;;;;;;;;;5040773;28;20222;-68
2024/01/29 18:32:03;;;;;;;40.10;19.97;;;;;;;;;;5026439;28;20475;-68
2024/01/29 18:34:35;;;;;;;39.70;19.30;;;;;;;;;;5028500;28;20927;-69
2024/01/29 18:37:04;;;;;;;39.23;19.73;;;;;;;;;;5044011;28;21004;-69
2024/01/29 18:39:34;;;;;;;38.13;19.40;;;;;;;;;;5023777;28;20426;-70
2024/01/29 18:42:03;;;;;;;39.70;20.53;;;;;;;;;;5025040;28;20199;-70
2024/01/29 18:44:30;;;;;;;32.57;16.20;;;;;;;;;;5041680;28;20986;-70
2024/01/29 18:51:08;;;;;;;40.07;19.47;;;;;;;;;;5025897;28;20490;-69
2024/01/29 18:53:38;;;;;;;34.07;16.63;;;;;;;;;;5023911;28;20477;-70
2024/01/29 18:56:06;;;;;;;38.03;19.77;;;;;;;;;;5023299;28;20230;-68
2024/01/29 18:58:34;;;;;;;34.87;16.03;;;;;;;;;;5006897;28;20206;-68
2024/01/29 19:01:01;;;;;;;35.23;19.23;;;;;;;;;;5024690;28;20433;-69
2024/01/29 19:03:30;;;;;;;35.80;16.87;;;;;;;;;;5038992;28;20434;-69
2024/01/29 19:05:57;;;;;;;36.03;19.23;;;;;;;;;;5027533;28;21362;-69
2024/01/29 19:08:28;;;;;;;31.30;16.33;;;;;;;;;;5010118;28;20198;-70
2024/01/29 19:11:20;;;;;;;33.37;16.30;;;;;;;;;;5027917;28;20227;-73
2024/01/29 19:13:48;;;;;;;27.80;14.17;;;;;;;;;;5035768;28;20272;-71
2024/01/29 19:16:15;;;;;;;39.00;18.00;;;;;;;;;;5026005;28;20473;-69
2024/01/29 19:22:41;;;;;;;39.07;18.40;;;;;;;;;;5030767;28;20416;-68
2024/01/29 19:25:12;;;;;;;33.70;18.10;;;;;;;;;;5030592;28;20516;-71
2024/01/29 19:27:56;;;;;;;43.27;20.80;;;;;;;;;;5043662;28;20653;-68
2024/01/29 19:30:23;;;;;;;43.63;21.10;;;;;;;;;;5025446;28;20444;-68
2024/01/29 19:32:51;;;;;;;42.53;20.90;;;;;;;;;;5044414;28;20244;-67
2024/01/29 19:35:21;;;;;;;41.13;20.70;;;;;;;;;;5026506;28;20538;-67
2024/01/29 19:44:48;;;;;;;42.33;21.13;;;;;;;;;;5043704;28;20194;-69
2024/01/29 19:51:19;;;;;;;37.63;19.37;;;;;;;;;;5025077;28;20486;-69